Time;durP1;ratioP1;P1;durP2;ratioP2;P2;SDS_P1;SDS_P2;PMS_P1;PMS_P2;Temp;Humidity;BMP_temperature;BMP_pressure;BME280_temperature;BME280_humidity;BME280_pressure;Samples;Min_cycle;Max_cycle;Signal;HPM_P1;HPM_P2
2023/09/01 00:00:06;;;;;;;2.83;1.53;;;18.10;99.90;;;;;;4897217;29;20264;-76
2023/09/01 00:02:32;;;;;;;5.00;1.90;;;18.10;99.90;;;;;;4928654;29;20215;-77
2023/09/01 00:05:05;;;;;;;2.33;1.40;;;18.10;99.90;;;;;;4912942;29;20590;-76
2023/09/01 00:07:31;;;;;;;2.63;1.77;;;18.10;99.90;;;;;;4897812;29;20589;-76
2023/09/01 00:09:57;;;;;;;3.20;1.50;;;18.10;99.90;;;;;;4925605;29;20665;-76
2023/09/01 00:12:22;;;;;;;3.27;1.50;;;18.10;99.90;;;;;;4916700;29;21178;-76
2023/09/01 00:14:48;;;;;;;4.10;1.50;;;18.10;99.90;;;;;;4918093;29;20217;-76
2023/09/01 00:17:14;;;;;;;4.20;1.87;;;18.10;99.90;;;;;;4916744;29;20193;-76
2023/09/01 00:19:40;;;;;;;3.10;1.50;;;18.10;99.90;;;;;;4918074;29;20666;-76
2023/09/01 00:22:06;;;;;;;4.43;2.07;;;18.00;99.90;;;;;;4918052;29;20625;-76
2023/09/01 00:24:33;;;;;;;3.00;1.40;;;18.00;99.90;;;;;;4928724;29;20591;-76
2023/09/01 00:26:59;;;;;;;2.87;1.50;;;18.00;99.90;;;;;;4924633;29;20246;-76
2023/09/01 00:29:25;;;;;;;3.97;1.63;;;17.90;99.90;;;;;;4924236;29;20650;-76
2023/09/01 00:31:51;;;;;;;3.60;1.43;;;17.90;99.90;;;;;;4900575;29;20634;-76
2023/09/01 00:34:17;;;;;;;4.80;1.70;;;17.90;99.90;;;;;;4900782;29;21149;-76
2023/09/01 00:36:43;;;;;;;2.83;1.87;;;17.80;99.90;;;;;;4921932;29;20687;-76
2023/09/01 00:39:09;;;;;;;2.60;1.80;;;17.80;99.90;;;;;;4919941;29;20193;-76
2023/09/01 00:41:36;;;;;;;2.70;1.60;;;17.70;99.90;;;;;;4900366;29;20640;-76
2023/09/01 00:44:03;;;;;;;4.37;1.70;;;17.70;99.90;;;;;;4869217;29;20597;-76
2023/09/01 00:46:31;;;;;;;3.63;1.53;;;17.80;99.90;;;;;;4908662;29;20645;-76
2023/09/01 00:48:58;;;;;;;3.67;1.83;;;17.70;99.90;;;;;;4912492;29;20593;-76
2023/09/01 00:51:25;;;;;;;3.83;1.40;;;17.70;99.90;;;;;;4931555;29;20636;-76
2023/09/01 00:53:51;;;;;;;3.83;1.57;;;17.80;99.90;;;;;;4927001;29;20593;-76
2023/09/01 00:56:19;;;;;;;3.00;1.70;;;17.80;99.90;;;;;;4931737;29;20605;-76
2023/09/01 00:58:45;;;;;;;3.70;1.77;;;17.80;99.90;;;;;;4933032;29;20777;-76
2023/09/01 01:01:10;;;;;;;3.53;1.40;;;17.80;99.90;;;;;;4915139;29;21514;-76
2023/09/01 01:03:37;;;;;;;3.73;1.60;;;17.80;99.90;;;;;;4917464;29;20596;-76
2023/09/01 01:06:29;;;;;;;3.23;1.57;;;17.90;99.90;;;;;;4899062;29;20221;-76
2023/09/01 01:09:27;;;;;;;5.10;1.40;;;17.90;99.90;;;;;;4921514;29;20953;-76
2023/09/01 01:11:58;;;;;;;7.67;1.77;;;17.90;99.90;;;;;;4906360;29;20617;-77
2023/09/01 01:14:34;;;;;;;3.50;2.03;;;17.90;99.90;;;;;;4916739;29;20596;-77
2023/09/01 01:17:00;;;;;;;2.33;1.20;;;18.00;99.90;;;;;;4925914;29;20593;-77
2023/09/01 01:19:50;;;;;;;4.43;2.03;;;18.00;99.90;;;;;;4895604;29;20614;-77
2023/09/01 01:26:41;;;;;;;4.07;1.73;;;18.00;99.90;;;;;;4916920;29;20714;-78
2023/09/01 01:29:07;;;;;;;4.90;1.77;;;18.00;99.90;;;;;;4937609;29;20590;-77
2023/09/01 01:31:33;;;;;;;3.10;2.00;;;18.00;99.90;;;;;;4902508;29;21253;-77
2023/09/01 01:34:10;;;;;;;3.73;2.20;;;18.00;99.90;;;;;;4930221;29;20653;-77
2023/09/01 01:36:56;;;;;;;3.77;2.03;;;18.00;99.90;;;;;;4908265;29;20605;-76
2023/09/01 01:39:26;;;;;;;2.97;1.50;;;18.00;99.90;;;;;;4916753;29;20648;-77
2023/09/01 01:41:57;;;;;;;6.63;1.93;;;18.00;99.90;;;;;;4899765;29;20636;-76
2023/09/01 01:44:27;;;;;;;3.40;1.43;;;18.00;99.90;;;;;;4916191;29;21013;-76
2023/09/01 01:46:54;;;;;;;4.87;1.93;;;18.00;99.90;;;;;;4926019;29;20645;-76
2023/09/01 01:49:20;;;;;;;3.73;1.90;;;18.00;99.90;;;;;;4931036;29;20737;-76
2023/09/01 01:51:45;;;;;;;3.90;2.00;;;17.90;99.90;;;;;;4915112;29;21024;-76
2023/09/01 01:54:12;;;;;;;4.07;2.07;;;17.90;99.90;;;;;;4918754;29;20237;-76
2023/09/01 01:56:37;;;;;;;4.27;1.97;;;18.00;99.90;;;;;;4927545;29;20590;-76
2023/09/01 01:59:04;;;;;;;2.77;2.07;;;18.00;99.90;;;;;;4931018;29;20602;-76
2023/09/01 02:01:31;;;;;;;3.50;1.87;;;17.90;99.90;;;;;;4906852;29;20217;-76
2023/09/01 02:03:57;;;;;;;4.00;1.93;;;17.90;99.90;;;;;;4899076;29;20645;-76
2023/09/01 02:06:23;;;;;;;3.30;1.97;;;17.90;99.90;;;;;;4929124;29;20645;-76
2023/09/01 02:08:49;;;;;;;4.10;1.80;;;17.90;99.90;;;;;;4899262;29;21034;-76
2023/09/01 02:11:14;;;;;;;3.60;1.87;;;17.80;99.90;;;;;;4899458;29;20622;-76
2023/09/01 02:13:41;;;;;;;6.37;2.30;;;17.80;99.90;;;;;;4909102;29;20188;-76
2023/09/01 02:16:07;;;;;;;6.43;2.13;;;17.80;99.90;;;;;;4930615;29;20201;-77
2023/09/01 02:18:33;;;;;;;4.90;1.83;;;17.80;99.90;;;;;;4899030;29;20597;-76
2023/09/01 02:21:00;;;;;;;3.27;1.50;;;17.70;99.90;;;;;;4905318;29;20711;-76
2023/09/01 02:23:26;;;;;;;4.40;2.00;;;17.80;99.90;;;;;;4918981;29;20598;-76
2023/09/01 02:25:53;;;;;;;3.30;1.60;;;17.70;99.90;;;;;;4933506;29;21404;-77
2023/09/01 02:28:18;;;;;;;3.17;1.47;;;17.70;99.90;;;;;;4899885;29;20613;-76
2023/09/01 02:30:44;;;;;;;4.70;2.00;;;17.70;99.90;;;;;;4917899;29;20204;-76
2023/09/01 02:33:10;;;;;;;4.00;2.10;;;17.60;99.90;;;;;;4933273;29;20188;-76
2023/09/01 02:35:42;;;;;;;5.40;1.83;;;17.60;99.90;;;;;;4933545;29;20200;-76
2023/09/01 02:38:08;;;;;;;5.87;1.70;;;17.60;99.90;;;;;;4933358;29;20601;-76
2023/09/01 02:40:33;;;;;;;3.53;1.67;;;17.60;99.90;;;;;;4914278;29;21012;-76
2023/09/01 02:42:59;;;;;;;3.07;1.80;;;17.50;99.90;;;;;;4912814;29;20600;-76
2023/09/01 02:45:25;;;;;;;4.20;2.00;;;17.50;99.90;;;;;;4917323;29;20640;-76
2023/09/01 02:47:51;;;;;;;2.97;1.70;;;17.50;99.90;;;;;;4925961;29;20185;-76
2023/09/01 02:50:17;;;;;;;5.90;2.00;;;17.40;99.90;;;;;;4912071;29;20674;-77
2023/09/01 02:52:42;;;;;;;7.13;1.70;;;17.40;99.90;;;;;;4932870;29;20201;-77
2023/09/01 02:55:09;;;;;;;3.43;1.83;;;17.40;99.90;;;;;;4917357;29;20185;-77
2023/09/01 02:57:35;;;;;;;3.47;1.87;;;17.40;99.90;;;;;;4917386;29;20550;-77
2023/09/01 03:00:14;;;;;;;4.07;1.90;;;17.40;99.90;;;;;;4926616;29;20602;-77
2023/09/01 03:02:42;;;;;;;4.40;2.17;;;17.40;99.90;;;;;;4913963;29;20644;-76
2023/09/01 03:05:08;;;;;;;3.33;1.80;;;17.30;99.90;;;;;;4929112;29;20648;-77
2023/09/01 03:07:35;;;;;;;2.40;1.47;;;17.30;99.90;;;;;;4917441;29;20597;-77
2023/09/01 03:10:01;;;;;;;4.20;2.20;;;17.30;99.90;;;;;;4933154;29;20185;-77
2023/09/01 03:12:27;;;;;;;2.43;2.23;;;17.30;99.90;;;;;;4916746;29;20616;-77
2023/09/01 03:14:53;;;;;;;3.50;2.00;;;17.30;99.90;;;;;;4919457;29;20693;-77
2023/09/01 03:17:19;;;;;;;7.07;1.80;;;17.30;99.90;;;;;;4913832;29;20192;-78
2023/09/01 03:19:45;;;;;;;3.43;2.20;;;17.30;99.90;;;;;;4898145;29;20999;-77
2023/09/01 03:22:10;;;;;;;3.90;2.00;;;17.20;99.90;;;;;;4914642;29;20229;-77
2023/09/01 03:24:36;;;;;;;2.50;1.63;;;17.20;99.90;;;;;;4910885;29;20283;-77
2023/09/01 03:27:02;;;;;;;2.77;2.00;;;17.20;99.90;;;;;;4939781;29;20742;-77
2023/09/01 03:29:28;;;;;;;4.30;1.63;;;17.10;99.90;;;;;;4915545;29;20633;-77
2023/09/01 03:31:54;;;;;;;3.10;1.50;;;17.10;99.90;;;;;;4907743;29;21431;-77
2023/09/01 03:34:21;;;;;;;4.50;2.00;;;17.20;99.90;;;;;;4897391;29;20586;-77
2023/09/01 03:36:47;;;;;;;3.63;1.93;;;17.10;99.90;;;;;;4897773;29;20733;-77
2023/09/01 03:39:13;;;;;;;4.87;2.27;;;17.10;99.90;;;;;;4913221;29;20186;-77
2023/09/01 03:41:39;;;;;;;4.53;2.30;;;17.10;99.90;;;;;;4921547;29;20626;-77
2023/09/01 03:44:05;;;;;;;3.03;2.23;;;17.10;99.90;;;;;;4896978;29;20582;-77
2023/09/01 03:46:31;;;;;;;3.33;2.40;;;17.10;99.90;;;;;;4897482;29;20209;-77
2023/09/01 03:48:58;;;;;;;3.50;2.13;;;17.10;99.90;;;;;;4913592;29;20589;-77
2023/09/01 03:51:23;;;;;;;3.83;2.50;;;17.10;99.90;;;;;;4913354;29;20622;-78
2023/09/01 03:53:49;;;;;;;4.90;2.27;;;17.10;99.90;;;;;;4897662;29;20189;-77
2023/09/01 03:56:17;;;;;;;6.80;2.60;;;17.00;99.90;;;;;;4910125;29;20226;-77
2023/09/01 03:58:43;;;;;;;3.77;2.30;;;17.10;99.90;;;;;;4905841;29;20185;-77
2023/09/01 04:01:11;;;;;;;4.87;2.60;;;17.10;99.90;;;;;;4929260;29;20637;-76
2023/09/01 04:03:38;;;;;;;3.93;2.40;;;17.10;99.90;;;;;;4940645;29;20602;-77
2023/09/01 04:06:05;;;;;;;3.10;2.20;;;17.10;99.90;;;;;;4913016;29;20637;-77
2023/09/01 04:08:32;;;;;;;3.73;2.17;;;17.10;99.90;;;;;;4927765;29;20750;-77
2023/09/01 04:10:58;;;;;;;2.83;1.67;;;17.10;99.90;;;;;;4905338;29;20613;-77
2023/09/01 04:13:24;;;;;;;4.33;2.20;;;17.10;99.90;;;;;;4897139;29;20660;-77
2023/09/01 04:15:50;;;;;;;2.87;1.93;;;17.10;99.90;;;;;;4897375;29;20184;-77
2023/09/01 04:18:17;;;;;;;4.40;2.10;;;17.10;99.90;;;;;;4925865;29;20597;-77
2023/09/01 04:20:50;;;;;;;3.93;1.37;;;17.20;99.90;;;;;;4897192;29;20625;-77
2023/09/01 04:23:15;;;;;;;4.90;2.33;;;17.20;99.90;;;;;;4914405;29;20578;-77
2023/09/01 04:25:46;;;;;;;3.67;2.13;;;17.20;99.90;;;;;;4905120;29;20638;-77
2023/09/01 04:28:16;;;;;;;5.10;2.43;;;17.20;99.90;;;;;;4934069;29;20617;-78
2023/09/01 04:30:43;;;;;;;2.60;2.00;;;17.20;99.90;;;;;;4929397;29;20624;-78
2023/09/01 04:33:09;;;;;;;2.40;1.73;;;17.20;99.90;;;;;;4915591;29;20597;-77
2023/09/01 04:35:36;;;;;;;3.40;1.67;;;17.20;99.90;;;;;;4904729;29;20592;-78
2023/09/01 04:38:02;;;;;;;3.97;2.20;;;17.20;99.90;;;;;;4905055;29;20590;-78
2023/09/01 04:40:28;;;;;;;3.07;1.90;;;17.20;99.90;;;;;;4915758;29;20604;-78
2023/09/01 04:42:54;;;;;;;3.97;1.90;;;17.20;99.90;;;;;;4907087;29;20683;-78
2023/09/01 04:45:22;;;;;;;3.40;1.90;;;17.20;99.90;;;;;;4900027;29;20619;-78
2023/09/01 04:47:48;;;;;;;3.07;1.93;;;17.20;99.90;;;;;;4904623;29;20644;-77
2023/09/01 04:50:15;;;;;;;2.60;1.60;;;17.20;99.90;;;;;;4911831;29;20590;-78
2023/09/01 04:52:44;;;;;;;3.90;2.03;;;17.20;99.90;;;;;;4916101;29;20621;-78
2023/09/01 04:55:13;;;;;;;4.00;2.87;;;17.30;99.90;;;;;;4910578;29;20648;-78
2023/09/01 04:57:39;;;;;;;4.13;1.83;;;17.30;99.90;;;;;;4936334;29;20593;-76
2023/09/01 05:00:15;;;;;;;2.90;1.33;;;17.30;99.90;;;;;;4928796;29;20170;-76
2023/09/01 05:02:57;;;;;;;2.57;1.60;;;17.30;99.90;;;;;;4935602;29;20228;-78
2023/09/01 05:05:22;;;;;;;2.70;1.53;;;17.30;99.90;;;;;;4904019;29;20641;-78
2023/09/01 05:07:49;;;;;;;3.47;1.67;;;17.40;99.90;;;;;;4915968;29;20589;-78
2023/09/01 05:10:15;;;;;;;4.03;2.10;;;17.40;99.90;;;;;;4920963;29;20601;-78
2023/09/01 05:12:41;;;;;;;3.97;2.20;;;17.40;99.90;;;;;;4925575;29;20190;-78
2023/09/01 05:15:07;;;;;;;4.17;1.50;;;17.40;99.90;;;;;;4910472;29;20185;-78
2023/09/01 05:17:34;;;;;;;5.40;2.00;;;17.40;99.90;;;;;;4909230;29;20188;-78
2023/09/01 05:20:00;;;;;;;2.80;1.77;;;17.50;99.90;;;;;;4916246;29;20641;-78
2023/09/01 05:22:26;;;;;;;4.40;1.40;;;17.50;99.90;;;;;;4901206;29;20621;-78
2023/09/01 05:24:53;;;;;;;5.03;2.20;;;17.50;99.90;;;;;;4912509;29;20614;-77
2023/09/01 05:27:19;;;;;;;6.03;1.80;;;17.50;99.90;;;;;;4916512;29;20642;-78
2023/09/01 05:29:47;;;;;;;2.30;1.77;;;17.50;99.90;;;;;;4934901;29;21164;-77
2023/09/01 05:32:13;;;;;;;3.77;1.87;;;17.50;99.90;;;;;;4919853;29;21056;-78
2023/09/01 05:34:39;;;;;;;2.17;1.60;;;17.50;99.90;;;;;;4930683;29;20625;-77
2023/09/01 05:37:05;;;;;;;4.50;2.20;;;17.60;99.90;;;;;;4915727;29;20976;-77
2023/09/01 05:39:32;;;;;;;2.90;1.30;;;17.60;99.90;;;;;;4899793;29;20970;-77
2023/09/01 05:41:58;;;;;;;3.47;2.20;;;17.70;99.90;;;;;;4917368;29;20640;-76
2023/09/01 05:44:24;;;;;;;5.20;2.43;;;17.70;99.90;;;;;;4915128;29;20182;-77
2023/09/01 05:46:50;;;;;;;2.47;1.67;;;17.70;99.90;;;;;;4907712;29;20652;-77
2023/09/01 05:49:16;;;;;;;3.53;1.87;;;17.80;99.90;;;;;;4950221;29;20607;-77
2023/09/01 05:51:42;;;;;;;2.50;1.50;;;17.80;99.90;;;;;;4900702;29;21053;-77
2023/09/01 05:54:08;;;;;;;4.47;2.30;;;17.90;99.90;;;;;;4900230;29;20602;-77
2023/09/01 05:56:34;;;;;;;3.10;2.30;;;17.90;99.90;;;;;;4899509;29;20205;-77
2023/09/01 05:58:59;;;;;;;4.40;1.87;;;17.90;99.90;;;;;;4899881;29;20196;-77
2023/09/01 06:01:25;;;;;;;4.43;2.33;;;17.90;99.90;;;;;;4930528;29;20209;-77
2023/09/01 06:03:51;;;;;;;2.27;1.50;;;17.90;99.90;;;;;;4899023;29;20341;-77
2023/09/01 06:06:16;;;;;;;2.77;1.70;;;17.90;99.90;;;;;;4914797;29;20197;-77
2023/09/01 06:08:42;;;;;;;3.93;1.90;;;17.90;99.90;;;;;;4914579;29;20241;-77
2023/09/01 06:11:09;;;;;;;2.33;2.03;;;18.00;99.90;;;;;;4899139;29;20565;-77
2023/09/01 06:13:35;;;;;;;2.77;1.47;;;18.00;99.90;;;;;;4914158;29;20646;-77
2023/09/01 06:16:04;;;;;;;3.93;1.90;;;18.00;99.90;;;;;;4915921;29;20597;-77
2023/09/01 06:18:30;;;;;;;3.67;1.70;;;18.10;99.90;;;;;;4914509;29;20705;-77
2023/09/01 06:20:56;;;;;;;3.60;1.80;;;18.10;99.90;;;;;;4917123;29;20646;-81
2023/09/01 06:23:23;;;;;;;4.00;1.33;;;18.20;99.90;;;;;;4928272;29;20608;-81
2023/09/01 06:25:48;;;;;;;3.30;1.40;;;18.20;99.90;;;;;;4906040;29;20205;-80
2023/09/01 06:28:14;;;;;;;4.60;1.70;;;18.30;99.90;;;;;;4916331;29;20772;-76
2023/09/01 06:30:41;;;;;;;3.80;1.60;;;18.30;99.90;;;;;;4926191;29;20178;-77
2023/09/01 06:33:08;;;;;;;4.10;1.73;;;18.40;99.90;;;;;;4917757;29;20260;-74
2023/09/01 06:35:34;;;;;;;4.10;1.70;;;18.50;99.90;;;;;;4904969;29;20589;-76
2023/09/01 06:38:04;;;;;;;3.87;2.33;;;18.50;99.90;;;;;;4900385;29;20957;-73
2023/09/01 06:40:30;;;;;;;3.10;2.00;;;18.60;99.90;;;;;;4909091;29;20585;-74
2023/09/01 06:42:56;;;;;;;2.37;1.67;;;18.80;99.90;;;;;;4937986;29;21180;-74
2023/09/01 06:45:22;;;;;;;3.03;1.50;;;18.80;99.90;;;;;;4936076;29;20181;-74
2023/09/01 06:47:54;;;;;;;2.80;1.60;;;18.90;99.90;;;;;;4919529;29;20625;-74
2023/09/01 06:50:23;;;;;;;2.40;1.53;;;19.00;99.90;;;;;;4937847;29;20207;-74
2023/09/01 06:52:50;;;;;;;2.70;1.50;;;19.00;99.90;;;;;;4938347;29;21019;-74
2023/09/01 06:55:17;;;;;;;4.80;1.50;;;19.00;99.90;;;;;;4940341;29;20177;-75
2023/09/01 06:57:43;;;;;;;6.27;1.53;;;19.10;99.90;;;;;;4926886;29;20597;-75
2023/09/01 07:00:09;;;;;;;2.67;1.50;;;19.10;99.90;;;;;;4944001;29;20592;-75
2023/09/01 07:02:38;;;;;;;4.33;1.97;;;19.10;99.90;;;;;;4941640;29;20287;-74
2023/09/01 07:05:04;;;;;;;2.03;1.27;;;19.20;99.90;;;;;;4924865;29;20657;-74
2023/09/01 07:07:30;;;;;;;2.50;1.67;;;19.20;99.90;;;;;;4929454;29;20956;-76
2023/09/01 07:09:56;;;;;;;3.70;1.30;;;19.10;99.90;;;;;;4902689;29;20629;-74
2023/09/01 07:12:21;;;;;;;2.43;1.27;;;19.10;99.90;;;;;;4938111;29;20205;-75
2023/09/01 07:14:47;;;;;;;2.63;1.30;;;19.10;99.90;;;;;;4900501;29;20188;-76
2023/09/01 07:17:13;;;;;;;2.07;1.37;;;19.10;99.90;;;;;;4897371;29;20536;-77
2023/09/01 07:19:39;;;;;;;2.30;1.30;;;19.00;99.90;;;;;;4903248;29;20223;-75
2023/09/01 07:22:07;;;;;;;2.20;1.40;;;19.10;99.90;;;;;;4928035;29;20193;-75
2023/09/01 07:24:33;;;;;;;3.63;1.50;;;19.10;99.90;;;;;;4939778;29;20598;-74
2023/09/01 07:26:59;;;;;;;3.53;1.47;;;19.20;99.90;;;;;;4919147;29;20652;-76
2023/09/01 07:29:24;;;;;;;2.27;1.00;;;19.20;99.90;;;;;;4914431;29;20184;-76
2023/09/01 07:31:53;;;;;;;1.70;1.00;;;19.30;99.90;;;;;;4914917;29;20258;-77
2023/09/01 07:34:19;;;;;;;4.20;1.13;;;19.30;99.90;;;;;;4895161;29;20228;-76
2023/09/01 07:36:44;;;;;;;2.27;1.20;;;19.30;99.90;;;;;;4916515;29;20609;-75
2023/09/01 07:39:10;;;;;;;2.30;1.23;;;19.30;99.90;;;;;;4926862;29;20184;-76
2023/09/01 07:41:36;;;;;;;2.10;1.20;;;19.30;99.90;;;;;;4904244;29;20209;-76
2023/09/01 07:44:02;;;;;;;7.10;1.60;;;19.20;99.90;;;;;;4917841;29;20980;-73
2023/09/01 07:46:33;;;;;;;2.90;1.30;;;19.20;99.90;;;;;;4900662;29;20212;-72
2023/09/01 07:49:01;;;;;;;2.57;1.20;;;19.10;99.90;;;;;;4906025;29;20620;-72
2023/09/01 07:51:26;;;;;;;2.47;1.33;;;19.00;99.90;;;;;;4910079;29;20606;-74
2023/09/01 07:53:54;;;;;;;3.80;1.30;;;19.00;99.90;;;;;;4899475;29;21133;-77
2023/09/01 07:56:21;;;;;;;3.80;1.90;;;18.90;99.90;;;;;;4918333;29;20186;-75
2023/09/01 07:58:46;;;;;;;3.50;1.50;;;18.80;99.90;;;;;;4891560;29;20626;-74
2023/09/01 08:01:12;;;;;;;2.40;1.30;;;18.80;99.90;;;;;;4928041;29;20624;-75
2023/09/01 08:03:38;;;;;;;3.17;1.60;;;18.70;99.90;;;;;;4941459;29;20649;-75
2023/09/01 08:06:04;;;;;;;2.40;1.17;;;18.60;99.90;;;;;;4942331;29;20260;-75
2023/09/01 08:08:30;;;;;;;3.10;1.77;;;18.40;99.90;;;;;;4935026;29;20588;-73
2023/09/01 08:10:56;;;;;;;2.27;1.30;;;18.30;99.90;;;;;;4914277;29;20209;-73
2023/09/01 08:13:22;;;;;;;2.93;1.23;;;18.20;99.90;;;;;;4914640;29;20586;-73
2023/09/01 08:15:49;;;;;;;2.60;1.40;;;18.10;99.90;;;;;;4920521;29;20649;-73
2023/09/01 08:18:14;;;;;;;3.73;2.20;;;18.10;99.90;;;;;;4913262;29;20596;-74
2023/09/01 08:20:42;;;;;;;4.17;1.67;;;18.00;99.90;;;;;;4897282;29;20602;-74
2023/09/01 08:23:08;;;;;;;3.47;1.47;;;18.00;99.90;;;;;;4912653;29;20182;-74
2023/09/01 08:25:35;;;;;;;3.63;1.80;;;17.90;99.90;;;;;;4897058;29;20641;-73
2023/09/01 08:28:03;;;;;;;3.30;1.40;;;17.80;99.90;;;;;;4926221;29;20598;-73
2023/09/01 08:30:29;;;;;;;4.50;2.13;;;17.80;99.90;;;;;;4935090;29;20657;-73
2023/09/01 08:32:54;;;;;;;2.53;1.60;;;17.70;99.90;;;;;;4917337;29;20682;-74
2023/09/01 08:35:20;;;;;;;5.00;1.70;;;17.70;99.90;;;;;;4914597;29;20625;-74
2023/09/01 08:37:46;;;;;;;2.70;2.30;;;17.70;99.90;;;;;;4917101;29;20186;-74
2023/09/01 08:40:12;;;;;;;3.00;1.77;;;17.70;99.90;;;;;;4900585;29;20189;-74
2023/09/01 08:42:49;;;;;;;3.57;1.60;;;17.60;99.90;;;;;;4932091;29;20210;-74
2023/09/01 08:45:16;;;;;;;2.13;1.27;;;17.70;99.90;;;;;;4919187;29;20628;-75
2023/09/01 08:47:47;;;;;;;3.23;1.47;;;17.70;99.90;;;;;;4935114;29;20664;-74
2023/09/01 08:50:14;;;;;;;2.47;1.43;;;17.70;99.90;;;;;;4919442;29;21221;-74
2023/09/01 08:52:45;;;;;;;4.80;1.70;;;17.70;99.90;;;;;;4934729;29;20643;-73
2023/09/01 08:55:12;;;;;;;2.97;1.10;;;17.70;99.90;;;;;;4936133;29;20593;-74
2023/09/01 08:57:39;;;;;;;2.20;1.33;;;17.70;99.90;;;;;;4925810;29;20750;-74
2023/09/01 09:00:09;;;;;;;1.93;1.17;;;17.70;99.90;;;;;;4927726;29;20646;-74
2023/09/01 09:02:40;;;;;;;5.03;1.43;;;17.70;99.90;;;;;;4915706;29;20645;-74
2023/09/01 09:05:06;;;;;;;3.00;1.20;;;17.70;99.90;;;;;;4920823;29;20680;-74
2023/09/01 09:07:32;;;;;;;1.77;1.17;;;17.70;99.90;;;;;;4931510;29;20639;-75
2023/09/01 09:09:59;;;;;;;1.50;1.10;;;17.80;99.90;;;;;;4934518;29;20580;-74
2023/09/01 09:12:37;;;;;;;1.83;1.30;;;17.80;99.90;;;;;;4935576;29;20288;-74
2023/09/01 09:15:04;;;;;;;1.77;0.90;;;17.80;99.90;;;;;;4931350;29;20942;-74
2023/09/01 09:17:48;;;;;;;3.10;1.87;;;17.90;99.90;;;;;;4914862;29;20581;-74
2023/09/01 09:20:18;;;;;;;2.30;1.53;;;18.00;99.90;;;;;;4934651;29;20599;-74
2023/09/01 09:23:00;;;;;;;2.70;1.33;;;18.10;99.90;;;;;;4934862;29;20616;-75
2023/09/01 09:25:31;;;;;;;2.00;1.20;;;18.10;99.90;;;;;;4928853;29;20589;-74
2023/09/01 09:28:12;;;;;;;2.20;1.20;;;18.20;99.90;;;;;;4911828;29;20701;-74
2023/09/01 09:30:49;;;;;;;2.90;1.30;;;18.20;99.90;;;;;;4925302;29;20701;-75
2023/09/01 09:33:14;;;;;;;2.77;1.20;;;18.30;99.90;;;;;;4929097;29;20596;-73
2023/09/01 09:35:50;;;;;;;3.53;1.07;;;18.30;99.90;;;;;;4936529;29;20597;-73
2023/09/01 09:38:17;;;;;;;3.03;1.53;;;18.30;99.90;;;;;;4934670;29;20328;-73
2023/09/01 09:40:56;;;;;;;2.03;1.10;;;18.40;99.90;;;;;;4929424;29;20652;-75
2023/09/01 09:43:22;;;;;;;2.50;1.43;;;18.40;99.90;;;;;;4928667;29;21175;-75
2023/09/01 09:45:48;;;;;;;2.33;1.27;;;18.40;99.90;;;;;;4918127;29;20644;-74
2023/09/01 09:48:14;;;;;;;3.30;1.10;;;18.40;99.90;;;;;;4935491;29;20240;-75
2023/09/01 09:50:42;;;;;;;2.47;1.13;;;18.40;99.90;;;;;;4934124;29;20199;-74
2023/09/01 09:53:13;;;;;;;2.10;1.30;;;18.50;99.90;;;;;;4935219;29;20592;-74
2023/09/01 09:55:52;;;;;;;3.87;1.40;;;18.50;99.90;;;;;;4935150;29;20588;-74
2023/09/01 09:58:23;;;;;;;3.93;1.60;;;18.50;99.90;;;;;;4911876;29;20726;-74
2023/09/01 10:01:05;;;;;;;2.90;1.53;;;18.60;99.90;;;;;;4922550;29;20642;-74
2023/09/01 10:03:32;;;;;;;2.10;1.17;;;18.70;99.90;;;;;;4922581;29;20589;-73
2023/09/01 10:05:58;;;;;;;2.13;1.47;;;18.80;99.90;;;;;;4914836;29;20999;-77
2023/09/01 10:08:24;;;;;;;2.70;1.57;;;18.80;99.90;;;;;;4916220;29;20570;-74
2023/09/01 10:10:50;;;;;;;3.30;1.73;;;18.80;99.90;;;;;;4918189;29;20618;-74
2023/09/01 10:13:16;;;;;;;4.10;2.90;;;18.80;99.90;;;;;;4914714;29;21172;-74
2023/09/01 10:15:43;;;;;;;5.30;4.33;;;18.90;99.90;;;;;;4930348;29;20191;-73
2023/09/01 10:18:09;;;;;;;4.07;2.93;;;18.90;99.90;;;;;;4907224;29;20747;-73
2023/09/01 10:20:38;;;;;;;2.10;1.87;;;19.10;99.90;;;;;;4914416;29;20622;-74
2023/09/01 10:23:05;;;;;;;2.90;2.47;;;19.10;99.90;;;;;;4915463;29;20993;-74
2023/09/01 10:25:31;;;;;;;2.20;1.60;;;19.20;99.90;;;;;;4898698;29;20666;-74
2023/09/01 10:28:05;;;;;;;5.63;2.23;;;19.20;99.90;;;;;;4915398;29;20589;-74
2023/09/01 10:30:36;;;;;;;3.50;2.33;;;19.20;99.90;;;;;;4925625;29;21022;-74
2023/09/01 10:33:07;;;;;;;3.50;2.10;;;19.30;99.90;;;;;;4898351;29;20605;-74
2023/09/01 10:35:48;;;;;;;2.67;2.37;;;19.30;99.90;;;;;;4915490;29;20593;-73
2023/09/01 10:38:22;;;;;;;2.83;2.20;;;19.40;99.90;;;;;;4915639;29;20597;-79
2023/09/01 10:40:55;;;;;;;2.43;1.10;;;19.50;99.90;;;;;;4914599;29;20627;-79
2023/09/01 10:43:38;;;;;;;3.20;1.90;;;19.50;99.90;;;;;;4915557;29;21145;-79
2023/09/01 10:48:53;;;;;;;2.63;2.13;;;19.50;99.90;;;;;;4926785;29;20585;-80
2023/09/01 10:51:24;;;;;;;2.10;1.90;;;19.50;99.90;;;;;;4922356;29;20723;-80
2023/09/01 10:53:55;;;;;;;3.03;2.23;;;19.60;99.90;;;;;;4905569;29;20634;-79
2023/09/01 10:56:22;;;;;;;3.00;2.70;;;19.80;99.90;;;;;;4913616;29;20609;-79
2023/09/01 10:58:52;;;;;;;2.37;1.97;;;19.90;99.90;;;;;;4889034;29;20587;-80
2023/09/01 11:01:31;;;;;;;2.27;2.07;;;19.90;99.90;;;;;;4904200;29;20634;-79
2023/09/01 11:04:16;;;;;;;2.73;2.40;;;20.00;99.90;;;;;;4909498;29;20589;-80
2023/09/01 11:07:00;;;;;;;2.67;2.13;;;20.10;99.90;;;;;;4906099;29;20630;-79
2023/09/01 11:09:35;;;;;;;2.30;1.73;;;20.20;99.90;;;;;;4905982;29;20582;-80
2023/09/01 11:12:06;;;;;;;2.90;2.37;;;20.20;99.90;;;;;;4922549;29;20652;-81
2023/09/01 11:14:34;;;;;;;3.70;2.30;;;20.20;99.90;;;;;;4905515;29;20600;-79
2023/09/01 11:17:01;;;;;;;3.03;2.00;;;20.30;99.90;;;;;;4906796;29;20958;-80
2023/09/01 11:19:27;;;;;;;3.03;2.47;;;20.30;99.90;;;;;;4905794;29;20950;-80
2023/09/01 11:21:53;;;;;;;2.30;2.03;;;20.30;99.90;;;;;;4905940;29;20626;-79
2023/09/01 11:24:22;;;;;;;2.80;2.40;;;20.40;99.90;;;;;;4922785;29;20249;-79
2023/09/01 11:26:49;;;;;;;2.80;2.23;;;20.40;99.90;;;;;;4916715;29;20637;-79
2023/09/01 11:29:15;;;;;;;2.80;2.03;;;20.50;99.90;;;;;;4914820;29;20598;-80
2023/09/01 11:31:42;;;;;;;2.73;1.90;;;20.50;99.90;;;;;;4897687;29;21316;-80
2023/09/01 11:34:09;;;;;;;4.80;2.27;;;20.50;99.90;;;;;;4917439;29;20939;-80
2023/09/01 11:36:47;;;;;;;2.87;2.57;;;20.50;99.90;;;;;;4927823;29;20665;-80
2023/09/01 11:39:13;;;;;;;3.90;2.00;;;20.50;99.90;;;;;;4929782;29;20698;-80
2023/09/01 11:41:41;;;;;;;2.50;2.30;;;20.50;99.90;;;;;;4919419;29;20666;-80
2023/09/01 11:44:07;;;;;;;3.53;2.40;;;20.40;99.90;;;;;;4919741;29;20617;-80
2023/09/01 11:46:35;;;;;;;2.47;2.10;;;20.30;99.90;;;;;;4926274;29;20649;-79
2023/09/01 11:49:03;;;;;;;4.30;2.80;;;20.20;99.90;;;;;;4919113;29;20601;-80
2023/09/01 11:51:30;;;;;;;3.03;2.10;;;20.20;99.90;;;;;;4927385;29;20629;-82
2023/09/01 11:53:59;;;;;;;4.27;2.23;;;20.20;99.90;;;;;;4902189;29;20624;-79
2023/09/01 11:56:25;;;;;;;5.30;2.37;;;20.20;99.90;;;;;;4929578;29;20629;-80
2023/09/01 11:58:53;;;;;;;3.70;2.70;;;20.20;99.90;;;;;;4930472;29;20627;-79
2023/09/01 12:01:21;;;;;;;2.97;2.63;;;20.20;99.90;;;;;;4920614;29;20221;-79
2023/09/01 12:03:54;;;;;;;2.43;2.00;;;20.10;99.90;;;;;;4919730;29;20595;-79
2023/09/01 12:06:24;;;;;;;2.70;2.23;;;20.10;99.90;;;;;;4915577;29;20699;-80
2023/09/01 12:08:53;;;;;;;2.60;1.70;;;20.00;99.90;;;;;;4922476;29;20602;-80
2023/09/01 12:11:20;;;;;;;2.13;1.60;;;20.00;99.90;;;;;;4923609;29;20645;-83
2023/09/01 12:13:49;;;;;;;2.27;1.97;;;20.00;99.90;;;;;;4933092;29;20605;-81
2023/09/01 12:16:23;;;;;;;2.17;1.70;;;20.00;99.90;;;;;;4916829;29;20625;-80
2023/09/01 12:18:49;;;;;;;2.63;1.73;;;20.00;99.90;;;;;;4900979;29;20973;-79
2023/09/01 12:21:15;;;;;;;1.60;1.30;;;20.10;99.90;;;;;;4900724;29;20609;-78
2023/09/01 12:23:43;;;;;;;2.30;1.70;;;20.10;99.90;;;;;;4932457;29;21172;-77
2023/09/01 12:26:09;;;;;;;2.00;1.43;;;20.20;99.90;;;;;;4932382;29;20201;-76
2023/09/01 12:28:36;;;;;;;2.43;1.93;;;20.20;99.90;;;;;;4917957;29;20601;-75
2023/09/01 12:31:04;;;;;;;9.10;2.03;;;20.30;99.90;;;;;;4922804;29;20689;-74
2023/09/01 12:33:30;;;;;;;2.20;1.83;;;20.40;99.90;;;;;;4916939;29;20597;-75
2023/09/01 12:35:56;;;;;;;2.37;1.83;;;20.40;99.90;;;;;;4917358;29;21167;-80
2023/09/01 12:38:22;;;;;;;2.90;2.00;;;20.50;99.90;;;;;;4903356;29;20181;-81
2023/09/01 12:40:48;;;;;;;4.63;2.00;;;20.60;99.90;;;;;;4921938;29;20269;-80
2023/09/01 12:43:14;;;;;;;2.50;1.73;;;20.70;99.90;;;;;;4915945;29;20624;-79
2023/09/01 12:45:41;;;;;;;3.17;2.80;;;20.90;99.90;;;;;;4920259;29;20661;-80
2023/09/01 12:48:06;;;;;;;2.93;1.70;;;21.00;99.90;;;;;;4917010;29;20613;-80
2023/09/01 12:50:32;;;;;;;4.70;2.40;;;21.00;99.90;;;;;;4928567;29;20637;-81
2023/09/01 12:52:58;;;;;;;2.47;1.57;;;21.10;99.90;;;;;;4906695;29;20658;-80
2023/09/01 12:55:25;;;;;;;3.13;1.87;;;21.30;99.90;;;;;;4908414;29;20589;-80
2023/09/01 12:57:55;;;;;;;2.63;2.10;;;21.50;99.90;;;;;;4908456;29;20685;-79